sensor_id;sensor_type;location;lat;lon;timestamp;pressure;altitude;pressure_sealevel;temperature;humidity
57644;BME280;43474;46.510;6.686;2023-03-24T00:00:19;95990.84;;;11.53;100.00
57644;BME280;43474;46.510;6.686;2023-03-24T00:03:05;95991.88;;;11.47;100.00
57644;BME280;43474;46.510;6.686;2023-03-24T00:05:32;95994.84;;;11.51;100.00
57644;BME280;43474;46.510;6.686;2023-03-24T00:07:57;95992.19;;;11.51;100.00
57644;BME280;43474;46.510;6.686;2023-03-24T00:10:28;95979.38;;;11.43;100.00
57644;BME280;43474;46.510;6.686;2023-03-24T00:12:55;95982.53;;;11.39;100.00
57644;BME280;43474;46.510;6.686;2023-03-24T00:15:23;95976.41;;;11.34;100.00
57644;BME280;43474;46.510;6.686;2023-03-24T00:17:49;95985.28;;;11.23;100.00
57644;BME280;43474;46.510;6.686;2023-03-24T00:20:17;95972.59;;;11.25;100.00
57644;BME280;43474;46.510;6.686;2023-03-24T00:22:46;95935.19;;;11.26;100.00
57644;BME280;43474;46.510;6.686;2023-03-24T00:25:21;95929.94;;;11.31;100.00
57644;BME280;43474;46.510;6.686;2023-03-24T00:27:48;95920.06;;;11.27;100.00
57644;BME280;43474;46.510;6.686;2023-03-24T00:30:17;95921.72;;;11.33;100.00
57644;BME280;43474;46.510;6.686;2023-03-24T00:32:43;95915.56;;;11.27;100.00
57644;BME280;43474;46.510;6.686;2023-03-24T00:35:12;95899.31;;;11.19;100.00
57644;BME280;43474;46.510;6.686;2023-03-24T00:37:40;95896.69;;;11.24;100.00
57644;BME280;43474;46.510;6.686;2023-03-24T00:40:09;95903.63;;;11.25;100.00
57644;BME280;43474;46.510;6.686;2023-03-24T00:42:42;95901.69;;;11.15;100.00
57644;BME280;43474;46.510;6.686;2023-03-24T00:45:13;95889.53;;;11.19;100.00
57644;BME280;43474;46.510;6.686;2023-03-24T00:47:39;95893.28;;;11.28;100.00
57644;BME280;43474;46.510;6.686;2023-03-24T00:50:07;95878.66;;;11.21;100.00
57644;BME280;43474;46.510;6.686;2023-03-24T00:52:34;95881.03;;;11.22;100.00
57644;BME280;43474;46.510;6.686;2023-03-24T00:55:02;95884.25;;;11.24;100.00
57644;BME280;43474;46.510;6.686;2023-03-24T00:57:29;95865.34;;;11.16;100.00
57644;BME280;43474;46.510;6.686;2023-03-24T01:00:02;95864.44;;;11.00;100.00
57644;BME280;43474;46.510;6.686;2023-03-24T01:02:36;95885.13;;;11.03;100.00
57644;BME280;43474;46.510;6.686;2023-03-24T01:05:03;95880.09;;;11.01;100.00
57644;BME280;43474;46.510;6.686;2023-03-24T01:07:28;95885.09;;;10.98;100.00
57644;BME280;43474;46.510;6.686;2023-03-24T01:09:57;95885.44;;;11.06;100.00
57644;BME280;43474;46.510;6.686;2023-03-24T01:14:49;95869.88;;;11.15;100.00
57644;BME280;43474;46.510;6.686;2023-03-24T01:17:16;95878.28;;;11.07;100.00
57644;BME280;43474;46.510;6.686;2023-03-24T01:19:44;95889.19;;;11.10;100.00
57644;BME280;43474;46.510;6.686;2023-03-24T01:22:09;95882.81;;;11.11;100.00
57644;BME280;43474;46.510;6.686;2023-03-24T01:24:35;95865.19;;;10.95;100.00
57644;BME280;43474;46.510;6.686;2023-03-24T01:27:02;95861.47;;;10.96;100.00
57644;BME280;43474;46.510;6.686;2023-03-24T01:29:27;95846.63;;;10.95;100.00
57644;BME280;43474;46.510;6.686;2023-03-24T01:31:53;95854.88;;;10.99;100.00
57644;BME280;43474;46.510;6.686;2023-03-24T01:34:19;95874.44;;;10.93;100.00
57644;BME280;43474;46.510;6.686;2023-03-24T01:36:44;95875.28;;;10.98;100.00
57644;BME280;43474;46.510;6.686;2023-03-24T01:39:10;95852.16;;;10.94;100.00
57644;BME280;43474;46.510;6.686;2023-03-24T01:41:37;95846.91;;;10.99;100.00
57644;BME280;43474;46.510;6.686;2023-03-24T01:44:27;95844.16;;;11.16;100.00
57644;BME280;43474;46.510;6.686;2023-03-24T01:46:54;95855.28;;;11.18;100.00
57644;BME280;43474;46.510;6.686;2023-03-24T01:49:21;95857.44;;;11.21;100.00
57644;BME280;43474;46.510;6.686;2023-03-24T01:51:52;95860.09;;;11.21;100.00
57644;BME280;43474;46.510;6.686;2023-03-24T01:59:54;95880.50;;;11.20;100.00
57644;BME280;43474;46.510;6.686;2023-03-24T02:02:21;95882.56;;;11.13;100.00
57644;BME280;43474;46.510;6.686;2023-03-24T02:04:50;95901.13;;;11.13;100.00
57644;BME280;43474;46.510;6.686;2023-03-24T02:07:38;95916.53;;;11.16;100.00
57644;BME280;43474;46.510;6.686;2023-03-24T02:10:08;95899.28;;;11.13;100.00
57644;BME280;43474;46.510;6.686;2023-03-24T02:12:34;95902.53;;;11.21;100.00
57644;BME280;43474;46.510;6.686;2023-03-24T02:15:01;95909.69;;;11.20;100.00
57644;BME280;43474;46.510;6.686;2023-03-24T02:28:37;95886.34;;;11.22;100.00
57644;BME280;43474;46.510;6.686;2023-03-24T02:31:25;95901.44;;;11.17;100.00
57644;BME280;43474;46.510;6.686;2023-03-24T02:42:07;95903.19;;;11.06;100.00
57644;BME280;43474;46.510;6.686;2023-03-24T02:50:31;95889.69;;;11.07;100.00
57644;BME280;43474;46.510;6.686;2023-03-24T02:55:48;95882.69;;;10.96;100.00
57644;BME280;43474;46.510;6.686;2023-03-24T02:58:27;95880.34;;;11.00;100.00
57644;BME280;43474;46.510;6.686;2023-03-24T03:01:01;95868.34;;;10.92;100.00
57644;BME280;43474;46.510;6.686;2023-03-24T03:03:33;95864.88;;;10.92;100.00
57644;BME280;43474;46.510;6.686;2023-03-24T03:06:08;95875.00;;;10.95;100.00
57644;BME280;43474;46.510;6.686;2023-03-24T03:08:38;95873.84;;;10.85;100.00
57644;BME280;43474;46.510;6.686;2023-03-24T03:11:07;95870.16;;;10.86;100.00
57644;BME280;43474;46.510;6.686;2023-03-24T03:13:41;95881.16;;;11.00;100.00
57644;BME280;43474;46.510;6.686;2023-03-24T03:16:12;95873.72;;;11.02;100.00
57644;BME280;43474;46.510;6.686;2023-03-24T03:18:53;95854.06;;;10.98;100.00
57644;BME280;43474;46.510;6.686;2023-03-24T03:21:23;95858.63;;;11.03;100.00
57644;BME280;43474;46.510;6.686;2023-03-24T03:24:26;95861.00;;;10.99;100.00
57644;BME280;43474;46.510;6.686;2023-03-24T03:27:01;95843.94;;;10.90;100.00
57644;BME280;43474;46.510;6.686;2023-03-24T03:29:32;95864.34;;;10.90;100.00
57644;BME280;43474;46.510;6.686;2023-03-24T03:32:04;95869.84;;;10.83;100.00
57644;BME280;43474;46.510;6.686;2023-03-24T03:34:51;95862.16;;;10.81;100.00
57644;BME280;43474;46.510;6.686;2023-03-24T03:37:25;95871.59;;;10.72;100.00
57644;BME280;43474;46.510;6.686;2023-03-24T03:39:58;95862.59;;;10.73;100.00
57644;BME280;43474;46.510;6.686;2023-03-24T03:42:25;95860.66;;;10.64;100.00
57644;BME280;43474;46.510;6.686;2023-03-24T03:44:51;95884.84;;;10.72;100.00
57644;BME280;43474;46.510;6.686;2023-03-24T03:47:17;95875.25;;;10.66;100.00
57644;BME280;43474;46.510;6.686;2023-03-24T03:49:46;95878.41;;;10.63;100.00
57644;BME280;43474;46.510;6.686;2023-03-24T03:52:12;95892.44;;;10.64;100.00
57644;BME280;43474;46.510;6.686;2023-03-24T03:54:39;95898.44;;;10.54;100.00
57644;BME280;43474;46.510;6.686;2023-03-24T03:57:06;95894.06;;;10.65;100.00
57644;BME280;43474;46.510;6.686;2023-03-24T03:59:35;95903.59;;;10.66;100.00
57644;BME280;43474;46.510;6.686;2023-03-24T04:02:25;95904.63;;;10.59;100.00
57644;BME280;43474;46.510;6.686;2023-03-24T04:05:51;95899.59;;;10.63;100.00
57644;BME280;43474;46.510;6.686;2023-03-24T04:19:10;95912.00;;;10.57;100.00
57644;BME280;43474;46.510;6.686;2023-03-24T04:24:54;95929.13;;;10.50;100.00
57644;BME280;43474;46.510;6.686;2023-03-24T04:27:39;95937.38;;;10.53;100.00
57644;BME280;43474;46.510;6.686;2023-03-24T04:35:51;95942.13;;;10.51;100.00
57644;BME280;43474;46.510;6.686;2023-03-24T04:38:20;95950.81;;;10.47;100.00
57644;BME280;43474;46.510;6.686;2023-03-24T04:40:51;95944.72;;;10.46;100.00
57644;BME280;43474;46.510;6.686;2023-03-24T04:43:22;95959.56;;;10.47;100.00
57644;BME280;43474;46.510;6.686;2023-03-24T04:45:51;95962.63;;;10.39;100.00
57644;BME280;43474;46.510;6.686;2023-03-24T04:48:23;95941.03;;;10.25;100.00
57644;BME280;43474;46.510;6.686;2023-03-24T04:50:59;95942.69;;;10.31;100.00
57644;BME280;43474;46.510;6.686;2023-03-24T04:53:26;95958.44;;;10.43;100.00
57644;BME280;43474;46.510;6.686;2023-03-24T04:56:11;95962.63;;;10.39;100.00
57644;BME280;43474;46.510;6.686;2023-03-24T04:58:42;95962.03;;;10.32;100.00
57644;BME280;43474;46.510;6.686;2023-03-24T05:01:08;95964.69;;;10.32;100.00
57644;BME280;43474;46.510;6.686;2023-03-24T05:03:34;95990.09;;;10.33;100.00
57644;BME280;43474;46.510;6.686;2023-03-24T05:06:03;95993.56;;;10.33;100.00
57644;BME280;43474;46.510;6.686;2023-03-24T05:08:30;95981.56;;;10.26;100.00
57644;BME280;43474;46.510;6.686;2023-03-24T05:10:56;95987.28;;;10.23;100.00
57644;BME280;43474;46.510;6.686;2023-03-24T05:13:22;95965.66;;;10.09;100.00
57644;BME280;43474;46.510;6.686;2023-03-24T05:15:47;95996.28;;;10.22;100.00
57644;BME280;43474;46.510;6.686;2023-03-24T05:18:13;95997.50;;;10.14;100.00
57644;BME280;43474;46.510;6.686;2023-03-24T05:20:39;95991.19;;;10.15;100.00
57644;BME280;43474;46.510;6.686;2023-03-24T05:23:05;95995.09;;;10.13;100.00
57644;BME280;43474;46.510;6.686;2023-03-24T05:25:31;95999.28;;;10.08;100.00
57644;BME280;43474;46.510;6.686;2023-03-24T05:27:57;96007.53;;;10.12;100.00
57644;BME280;43474;46.510;6.686;2023-03-24T05:30:23;96020.78;;;10.12;100.00
57644;BME280;43474;46.510;6.686;2023-03-24T05:32:49;96014.69;;;10.12;100.00
57644;BME280;43474;46.510;6.686;2023-03-24T05:35:15;96015.22;;;10.14;100.00
57644;BME280;43474;46.510;6.686;2023-03-24T05:37:41;96014.22;;;10.15;100.00
57644;BME280;43474;46.510;6.686;2023-03-24T05:40:07;96019.66;;;10.08;100.00
57644;BME280;43474;46.510;6.686;2023-03-24T05:42:33;96021.84;;;10.11;100.00
57644;BME280;43474;46.510;6.686;2023-03-24T05:44:58;96017.16;;;10.18;100.00
57644;BME280;43474;46.510;6.686;2023-03-24T05:47:24;96029.59;;;10.18;100.00
57644;BME280;43474;46.510;6.686;2023-03-24T05:49:49;96032.41;;;10.11;100.00
57644;BME280;43474;46.510;6.686;2023-03-24T05:52:16;96048.31;;;10.11;100.00
57644;BME280;43474;46.510;6.686;2023-03-24T05:54:42;96035.78;;;10.06;100.00
57644;BME280;43474;46.510;6.686;2023-03-24T05:57:12;96047.06;;;10.19;100.00
57644;BME280;43474;46.510;6.686;2023-03-24T05:59:38;96023.91;;;10.09;100.00
57644;BME280;43474;46.510;6.686;2023-03-24T06:02:04;96034.41;;;10.04;100.00
57644;BME280;43474;46.510;6.686;2023-03-24T06:04:30;96045.59;;;10.06;100.00
57644;BME280;43474;46.510;6.686;2023-03-24T06:06:56;96043.72;;;10.06;100.00
57644;BME280;43474;46.510;6.686;2023-03-24T06:09:27;96065.00;;;10.12;100.00
57644;BME280;43474;46.510;6.686;2023-03-24T06:11:57;96071.56;;;10.09;100.00
57644;BME280;43474;46.510;6.686;2023-03-24T06:14:23;96083.78;;;10.10;100.00
57644;BME280;43474;46.510;6.686;2023-03-24T06:16:48;96079.28;;;10.10;100.00
57644;BME280;43474;46.510;6.686;2023-03-24T06:19:17;96082.81;;;10.16;100.00
57644;BME280;43474;46.510;6.686;2023-03-24T06:21:47;96057.38;;;10.15;100.00
57644;BME280;43474;46.510;6.686;2023-03-24T06:24:15;96073.00;;;10.17;100.00
57644;BME280;43474;46.510;6.686;2023-03-24T06:26:42;96074.06;;;10.16;100.00
57644;BME280;43474;46.510;6.686;2023-03-24T06:29:09;96066.84;;;10.11;100.00
57644;BME280;43474;46.510;6.686;2023-03-24T06:31:35;96052.88;;;10.16;100.00
57644;BME280;43474;46.510;6.686;2023-03-24T06:34:03;96062.97;;;10.19;100.00
57644;BME280;43474;46.510;6.686;2023-03-24T06:36:29;96056.75;;;10.25;100.00
57644;BME280;43474;46.510;6.686;2023-03-24T06:38:55;96041.66;;;10.25;100.00
57644;BME280;43474;46.510;6.686;2023-03-24T06:41:21;96050.81;;;10.34;100.00
57644;BME280;43474;46.510;6.686;2023-03-24T06:43:47;96048.94;;;10.35;100.00
57644;BME280;43474;46.510;6.686;2023-03-24T06:46:13;96042.59;;;10.36;100.00
57644;BME280;43474;46.510;6.686;2023-03-24T06:48:38;96045.06;;;10.43;100.00
57644;BME280;43474;46.510;6.686;2023-03-24T06:51:05;96034.59;;;10.31;100.00
57644;BME280;43474;46.510;6.686;2023-03-24T06:53:31;96043.59;;;10.30;100.00
57644;BME280;43474;46.510;6.686;2023-03-24T06:55:56;96039.09;;;10.30;100.00
57644;BME280;43474;46.510;6.686;2023-03-24T06:58:22;96041.06;;;10.40;100.00
57644;BME280;43474;46.510;6.686;2023-03-24T07:00:47;96038.91;;;10.37;100.00
57644;BME280;43474;46.510;6.686;2023-03-24T07:03:15;96034.72;;;10.41;100.00
57644;BME280;43474;46.510;6.686;2023-03-24T07:05:44;96030.84;;;10.49;100.00
57644;BME280;43474;46.510;6.686;2023-03-24T07:08:10;96046.72;;;10.66;100.00
57644;BME280;43474;46.510;6.686;2023-03-24T07:10:38;96045.66;;;10.67;100.00
57644;BME280;43474;46.510;6.686;2023-03-24T07:13:04;96033.13;;;10.62;100.00
57644;BME280;43474;46.510;6.686;2023-03-24T07:15:31;96040.53;;;10.82;100.00
57644;BME280;43474;46.510;6.686;2023-03-24T07:17:56;96040.81;;;11.07;100.00
57644;BME280;43474;46.510;6.686;2023-03-24T07:20:22;96035.69;;;12.09;100.00
57644;BME280;43474;46.510;6.686;2023-03-24T07:22:48;96029.47;;;11.98;100.00
57644;BME280;43474;46.510;6.686;2023-03-24T07:25:14;96027.81;;;11.60;100.00
57644;BME280;43474;46.510;6.686;2023-03-24T07:27:45;96044.63;;;11.44;100.00
57644;BME280;43474;46.510;6.686;2023-03-24T07:30:11;96055.47;;;11.37;100.00
57644;BME280;43474;46.510;6.686;2023-03-24T07:32:37;96052.66;;;11.22;100.00
57644;BME280;43474;46.510;6.686;2023-03-24T07:35:09;96048.56;;;11.09;100.00
57644;BME280;43474;46.510;6.686;2023-03-24T07:37:36;96075.81;;;11.04;100.00
57644;BME280;43474;46.510;6.686;2023-03-24T07:40:06;96066.56;;;10.85;100.00
57644;BME280;43474;46.510;6.686;2023-03-24T07:42:35;96081.09;;;10.82;100.00
57644;BME280;43474;46.510;6.686;2023-03-24T07:45:01;96077.50;;;10.72;100.00
57644;BME280;43474;46.510;6.686;2023-03-24T07:47:26;96084.91;;;10.70;100.00
57644;BME280;43474;46.510;6.686;2023-03-24T07:49:52;96064.63;;;10.58;100.00
57644;BME280;43474;46.510;6.686;2023-03-24T07:52:17;96068.13;;;10.64;100.00
57644;BME280;43474;46.510;6.686;2023-03-24T07:54:43;96083.56;;;10.67;100.00
57644;BME280;43474;46.510;6.686;2023-03-24T07:57:08;96056.91;;;10.57;100.00
57644;BME280;43474;46.510;6.686;2023-03-24T07:59:34;96059.16;;;10.65;100.00
57644;BME280;43474;46.510;6.686;2023-03-24T08:02:00;96053.31;;;10.85;100.00
57644;BME280;43474;46.510;6.686;2023-03-24T08:04:26;96055.50;;;10.93;100.00
57644;BME280;43474;46.510;6.686;2023-03-24T08:06:52;96053.31;;;10.85;100.00
57644;BME280;43474;46.510;6.686;2023-03-24T08:09:18;96054.34;;;10.84;100.00
57644;BME280;43474;46.510;6.686;2023-03-24T08:11:44;96035.22;;;10.82;100.00
57644;BME280;43474;46.510;6.686;2023-03-24T08:14:10;96038.19;;;10.85;100.00
57644;BME280;43474;46.510;6.686;2023-03-24T08:16:36;96043.81;;;10.89;100.00
57644;BME280;43474;46.510;6.686;2023-03-24T08:19:03;96047.94;;;11.02;100.00
57644;BME280;43474;46.510;6.686;2023-03-24T08:21:29;96042.94;;;11.05;100.00
57644;BME280;43474;46.510;6.686;2023-03-24T08:23:55;96050.16;;;10.88;100.00
57644;BME280;43474;46.510;6.686;2023-03-24T08:26:20;96063.66;;;10.86;100.00
57644;BME280;43474;46.510;6.686;2023-03-24T08:28:47;96056.44;;;10.82;100.00
57644;BME280;43474;46.510;6.686;2023-03-24T08:31:13;96052.00;;;10.87;100.00
57644;BME280;43474;46.510;6.686;2023-03-24T08:33:39;96050.81;;;10.78;100.00
57644;BME280;43474;46.510;6.686;2023-03-24T08:36:06;96069.88;;;10.97;100.00
57644;BME280;43474;46.510;6.686;2023-03-24T08:38:33;96056.56;;;10.92;100.00
57644;BME280;43474;46.510;6.686;2023-03-24T08:41:04;96062.13;;;10.91;100.00
57644;BME280;43474;46.510;6.686;2023-03-24T08:43:33;96045.97;;;10.92;100.00
57644;BME280;43474;46.510;6.686;2023-03-24T08:46:00;96051.13;;;11.04;100.00
57644;BME280;43474;46.510;6.686;2023-03-24T08:48:28;96047.00;;;11.40;100.00
57644;BME280;43474;46.510;6.686;2023-03-24T08:50:54;96044.19;;;11.79;100.00
57644;BME280;43474;46.510;6.686;2023-03-24T08:53:20;96046.56;;;12.12;100.00
57644;BME280;43474;46.510;6.686;2023-03-24T08:55:46;96048.56;;;12.32;100.00
57644;BME280;43474;46.510;6.686;2023-03-24T08:58:14;96044.72;;;12.55;100.00
57644;BME280;43474;46.510;6.686;2023-03-24T09:00:41;96051.75;;;12.82;100.00
57644;BME280;43474;46.510;6.686;2023-03-24T09:03:10;96038.44;;;12.77;100.00
57644;BME280;43474;46.510;6.686;2023-03-24T09:05:36;96038.69;;;12.70;100.00
57644;BME280;43474;46.510;6.686;2023-03-24T09:08:02;96033.28;;;12.55;100.00
57644;BME280;43474;46.510;6.686;2023-03-24T09:10:28;96017.88;;;12.57;100.00
57644;BME280;43474;46.510;6.686;2023-03-24T09:12:53;96027.69;;;12.51;100.00
57644;BME280;43474;46.510;6.686;2023-03-24T09:15:19;96021.72;;;12.86;100.00
57644;BME280;43474;46.510;6.686;2023-03-24T09:17:45;96027.69;;;13.14;100.00
57644;BME280;43474;46.510;6.686;2023-03-24T09:20:12;96021.09;;;13.37;100.00
57644;BME280;43474;46.510;6.686;2023-03-24T09:22:44;96015.53;;;14.20;100.00
57644;BME280;43474;46.510;6.686;2023-03-24T09:25:13;96006.22;;;15.91;100.00
57644;BME280;43474;46.510;6.686;2023-03-24T09:27:39;96009.75;;;16.11;100.00
57644;BME280;43474;46.510;6.686;2023-03-24T09:30:05;95996.53;;;15.95;100.00
57644;BME280;43474;46.510;6.686;2023-03-24T09:32:32;95993.53;;;15.29;100.00
57644;BME280;43474;46.510;6.686;2023-03-24T09:34:58;95987.31;;;14.94;100.00
57644;BME280;43474;46.510;6.686;2023-03-24T09:37:28;95965.88;;;14.55;100.00
57644;BME280;43474;46.510;6.686;2023-03-24T09:39:54;95997.09;;;14.39;100.00
57644;BME280;43474;46.510;6.686;2023-03-24T09:42:24;95994.69;;;14.42;100.00
57644;BME280;43474;46.510;6.686;2023-03-24T09:44:58;95994.31;;;15.73;100.00
57644;BME280;43474;46.510;6.686;2023-03-24T09:47:35;95984.97;;;16.82;100.00
57644;BME280;43474;46.510;6.686;2023-03-24T09:50:08;96000.34;;;17.33;100.00
57644;BME280;43474;46.510;6.686;2023-03-24T09:52:43;95973.41;;;17.81;100.00
57644;BME280;43474;46.510;6.686;2023-03-24T09:55:15;95996.09;;;17.51;100.00
57644;BME280;43474;46.510;6.686;2023-03-24T09:57:45;95994.56;;;17.26;100.00
57644;BME280;43474;46.510;6.686;2023-03-24T10:00:23;95997.88;;;17.18;100.00
57644;BME280;43474;46.510;6.686;2023-03-24T10:02:50;95992.25;;;17.38;100.00
57644;BME280;43474;46.510;6.686;2023-03-24T10:05:39;95991.16;;;17.39;100.00
57644;BME280;43474;46.510;6.686;2023-03-24T10:08:35;96010.91;;;16.58;100.00
57644;BME280;43474;46.510;6.686;2023-03-24T10:11:03;95997.56;;;15.99;100.00
57644;BME280;43474;46.510;6.686;2023-03-24T10:13:46;95983.78;;;15.87;100.00
57644;BME280;43474;46.510;6.686;2023-03-24T10:16:43;96008.00;;;15.67;100.00
57644;BME280;43474;46.510;6.686;2023-03-24T10:22:22;96026.16;;;14.25;100.00
57644;BME280;43474;46.510;6.686;2023-03-24T10:24:55;96036.59;;;13.86;100.00
57644;BME280;43474;46.510;6.686;2023-03-24T10:27:30;96018.22;;;13.59;100.00
57644;BME280;43474;46.510;6.686;2023-03-24T10:30:03;96021.88;;;13.27;100.00
57644;BME280;43474;46.510;6.686;2023-03-24T10:32:33;96032.16;;;12.93;100.00
57644;BME280;43474;46.510;6.686;2023-03-24T10:35:01;96034.22;;;12.81;100.00
57644;BME280;43474;46.510;6.686;2023-03-24T10:37:34;96047.19;;;12.72;100.00
57644;BME280;43474;46.510;6.686;2023-03-24T10:40:00;96053.00;;;12.59;100.00
57644;BME280;43474;46.510;6.686;2023-03-24T10:42:30;96057.00;;;12.66;100.00
57644;BME280;43474;46.510;6.686;2023-03-24T10:44:57;96051.34;;;12.53;100.00
57644;BME280;43474;46.510;6.686;2023-03-24T10:47:27;96037.06;;;12.64;100.00
57644;BME280;43474;46.510;6.686;2023-03-24T10:50:00;96060.47;;;12.72;100.00
57644;BME280;43474;46.510;6.686;2023-03-24T10:52:26;96063.75;;;12.84;100.00
57644;BME280;43474;46.510;6.686;2023-03-24T10:54:54;96065.09;;;12.92;100.00
57644;BME280;43474;46.510;6.686;2023-03-24T10:57:21;96038.00;;;12.95;100.00
57644;BME280;43474;46.510;6.686;2023-03-24T10:59:59;96039.59;;;13.01;100.00
57644;BME280;43474;46.510;6.686;2023-03-24T11:04:57;96043.81;;;12.92;100.00
57644;BME280;43474;46.510;6.686;2023-03-24T11:07:37;96061.97;;;13.05;100.00
57644;BME280;43474;46.510;6.686;2023-03-24T11:12:37;96041.13;;;12.87;100.00
57644;BME280;43474;46.510;6.686;2023-03-24T11:15:26;96071.81;;;13.05;100.00
57644;BME280;43474;46.510;6.686;2023-03-24T11:20:38;96072.22;;;12.81;100.00
57644;BME280;43474;46.510;6.686;2023-03-24T11:23:10;96061.84;;;12.75;100.00
57644;BME280;43474;46.510;6.686;2023-03-24T11:25:40;96065.50;;;12.63;100.00
57644;BME280;43474;46.510;6.686;2023-03-24T11:28:08;96065.22;;;12.60;100.00
57644;BME280;43474;46.510;6.686;2023-03-24T11:30:51;96079.06;;;12.67;100.00
57644;BME280;43474;46.510;6.686;2023-03-24T11:33:30;96067.84;;;12.55;100.00
57644;BME280;43474;46.510;6.686;2023-03-24T11:36:07;96084.50;;;12.40;100.00
57644;BME280;43474;46.510;6.686;2023-03-24T11:39:09;96080.88;;;12.56;100.00
57644;BME280;43474;46.510;6.686;2023-03-24T11:41:37;96085.91;;;12.58;100.00
57644;BME280;43474;46.510;6.686;2023-03-24T11:44:20;96073.66;;;12.52;100.00
57644;BME280;43474;46.510;6.686;2023-03-24T11:47:02;96065.44;;;12.48;100.00
57644;BME280;43474;46.510;6.686;2023-03-24T11:49:36;96076.91;;;12.59;100.00
57644;BME280;43474;46.510;6.686;2023-03-24T11:52:07;96083.75;;;12.50;100.00
57644;BME280;43474;46.510;6.686;2023-03-24T11:54:37;96082.84;;;12.29;100.00
57644;BME280;43474;46.510;6.686;2023-03-24T11:57:07;96073.78;;;12.25;100.00
57644;BME280;43474;46.510;6.686;2023-03-24T11:59:41;96100.34;;;12.25;100.00
57644;BME280;43474;46.510;6.686;2023-03-24T12:02:28;96088.41;;;12.32;100.00
57644;BME280;43474;46.510;6.686;2023-03-24T12:05:22;96082.59;;;12.35;100.00
57644;BME280;43474;46.510;6.686;2023-03-24T12:08:22;96077.03;;;12.37;100.00
57644;BME280;43474;46.510;6.686;2023-03-24T12:11:06;96090.97;;;12.54;100.00
57644;BME280;43474;46.510;6.686;2023-03-24T12:13:44;96082.25;;;12.64;100.00
57644;BME280;43474;46.510;6.686;2023-03-24T12:19:17;96090.63;;;12.40;100.00
57644;BME280;43474;46.510;6.686;2023-03-24T12:30:18;96093.06;;;12.10;100.00
57644;BME280;43474;46.510;6.686;2023-03-24T12:35:59;96091.47;;;12.09;100.00
57644;BME280;43474;46.510;6.686;2023-03-24T12:44:01;96091.91;;;12.01;100.00
57644;BME280;43474;46.510;6.686;2023-03-24T12:54:36;96098.47;;;11.93;100.00
57644;BME280;43474;46.510;6.686;2023-03-24T12:57:11;96096.19;;;11.75;100.00
57644;BME280;43474;46.510;6.686;2023-03-24T12:59:40;96079.09;;;11.65;100.00
57644;BME280;43474;46.510;6.686;2023-03-24T13:02:28;96098.03;;;11.74;100.00
57644;BME280;43474;46.510;6.686;2023-03-24T13:04:59;96089.44;;;11.67;100.00
57644;BME280;43474;46.510;6.686;2023-03-24T13:07:32;96086.16;;;11.55;100.00
57644;BME280;43474;46.510;6.686;2023-03-24T13:10:11;96106.34;;;11.56;100.00
57644;BME280;43474;46.510;6.686;2023-03-24T13:12:53;96096.63;;;11.39;100.00
57644;BME280;43474;46.510;6.686;2023-03-24T13:15:42;96107.09;;;11.51;100.00
57644;BME280;43474;46.510;6.686;2023-03-24T13:20:53;96082.56;;;11.39;100.00
57644;BME280;43474;46.510;6.686;2023-03-24T13:23:31;96092.91;;;11.41;100.00
57644;BME280;43474;46.510;6.686;2023-03-24T13:34:31;96079.81;;;11.07;100.00
57644;BME280;43474;46.510;6.686;2023-03-24T13:37:19;96080.28;;;11.26;100.00
57644;BME280;43474;46.510;6.686;2023-03-24T13:39:47;96074.63;;;11.17;100.00
57644;BME280;43474;46.510;6.686;2023-03-24T13:42:43;96086.34;;;11.21;100.00
57644;BME280;43474;46.510;6.686;2023-03-24T13:50:36;96060.81;;;10.93;100.00
57644;BME280;43474;46.510;6.686;2023-03-24T13:53:13;96079.06;;;10.90;100.00
57644;BME280;43474;46.510;6.686;2023-03-24T13:55:46;96075.19;;;10.97;100.00
57644;BME280;43474;46.510;6.686;2023-03-24T13:58:19;96095.22;;;10.88;100.00
57644;BME280;43474;46.510;6.686;2023-03-24T14:03:35;96100.03;;;10.91;100.00
57644;BME280;43474;46.510;6.686;2023-03-24T14:06:06;96093.06;;;10.85;100.00
57644;BME280;43474;46.510;6.686;2023-03-24T14:08:53;96099.72;;;10.87;100.00
57644;BME280;43474;46.510;6.686;2023-03-24T14:19:24;96072.59;;;10.80;100.00
57644;BME280;43474;46.510;6.686;2023-03-24T14:24:59;96072.75;;;10.74;100.00
57644;BME280;43474;46.510;6.686;2023-03-24T14:27:35;96111.31;;;10.81;100.00
57644;BME280;43474;46.510;6.686;2023-03-24T14:32:48;96079.97;;;10.78;100.00
57644;BME280;43474;46.510;6.686;2023-03-24T14:35:28;96104.44;;;10.64;100.00
57644;BME280;43474;46.510;6.686;2023-03-24T14:37:59;96120.84;;;10.60;100.00
57644;BME280;43474;46.510;6.686;2023-03-24T14:40:37;96116.50;;;10.54;100.00
57644;BME280;43474;46.510;6.686;2023-03-24T14:49:00;96107.19;;;10.52;100.00
57644;BME280;43474;46.510;6.686;2023-03-24T14:54:02;96103.63;;;10.63;100.00
57644;BME280;43474;46.510;6.686;2023-03-24T14:56:34;96096.59;;;10.52;100.00
57644;BME280;43474;46.510;6.686;2023-03-24T14:59:07;96123.81;;;10.47;100.00
57644;BME280;43474;46.510;6.686;2023-03-24T15:01:36;96121.75;;;10.49;100.00
57644;BME280;43474;46.510;6.686;2023-03-24T15:04:07;96108.91;;;10.24;100.00
57644;BME280;43474;46.510;6.686;2023-03-24T15:06:45;96118.75;;;10.29;100.00
57644;BME280;43474;46.510;6.686;2023-03-24T15:09:11;96097.56;;;10.29;100.00
57644;BME280;43474;46.510;6.686;2023-03-24T15:11:38;96102.16;;;10.33;100.00
57644;BME280;43474;46.510;6.686;2023-03-24T15:14:06;96108.25;;;10.34;100.00
57644;BME280;43474;46.510;6.686;2023-03-24T15:16:38;96074.69;;;10.23;100.00
57644;BME280;43474;46.510;6.686;2023-03-24T15:19:19;96074.50;;;10.24;100.00
57644;BME280;43474;46.510;6.686;2023-03-24T15:21:49;96073.19;;;10.27;100.00
57644;BME280;43474;46.510;6.686;2023-03-24T15:24:28;96081.38;;;10.25;100.00